createdAt,value
2019-05-14T00:01:06.246Z," 8.18"
2019-05-14T00:06:02.341Z," 8.28"
2019-05-14T00:10:58.063Z," 8.08"
2019-05-14T00:15:54.937Z," 7.93"
2019-05-14T00:20:51.174Z," 7.95"
2019-05-14T00:25:46.683Z," 7.90"
2019-05-14T00:30:42.482Z," 7.88"
2019-05-14T00:35:41.259Z," 7.93"
2019-05-14T00:40:36.443Z," 7.88"
2019-05-14T00:45:32.081Z," 7.87"
2019-05-14T00:50:27.780Z," 7.90"
2019-05-14T00:55:24.703Z," 7.80"
2019-05-14T01:00:22.017Z," 7.76"
2019-05-14T01:05:18.239Z," 7.87"
2019-05-14T01:10:13.706Z," 7.97"
2019-05-14T01:15:11.631Z," 7.77"
2019-05-14T01:20:09.173Z," 7.58"
2019-05-14T01:25:05.831Z," 7.43"
2019-05-14T01:30:02.048Z," 7.29"
2019-05-14T01:34:58.530Z," 7.18"
2019-05-14T01:39:54.196Z," 7.40"
2019-05-14T01:44:51.947Z," 7.56"
2019-05-14T01:49:47.331Z," 7.18"
2019-05-14T01:54:43.234Z," 7.20"
2019-05-14T01:59:39.074Z," 7.25"
2019-05-14T02:04:34.673Z," 7.25"
2019-05-14T02:09:31.375Z," 7.15"
2019-05-14T02:14:26.719Z," 7.15"
2019-05-14T02:19:23.501Z," 7.15"
2019-05-14T02:24:21.683Z," 7.21"
2019-05-14T02:29:17.596Z," 7.18"
2019-05-14T02:34:14.393Z," 7.29"
2019-05-14T02:39:11.833Z," 7.31"
2019-05-14T02:44:09.835Z," 7.32"
2019-05-14T02:49:05.371Z," 7.32"
2019-05-14T02:54:02.246Z," 7.15"
2019-05-14T02:58:59.977Z," 7.06"
2019-05-14T03:03:59.852Z," 7.13"
2019-05-14T03:08:55.196Z," 7.05"
2019-05-14T03:13:50.901Z," 7.14"
2019-05-14T03:18:49.931Z," 7.17"
2019-05-14T03:23:44.963Z," 7.07"
2019-05-14T03:28:40.732Z," 7.23"
2019-05-14T03:33:43.003Z," 7.25"
2019-05-14T03:38:39.438Z," 7.10"
2019-05-14T03:43:35.093Z," 7.32"
2019-05-14T03:48:31.289Z," 7.23"
2019-05-14T03:53:29.547Z," 7.20"
2019-05-14T03:58:29.641Z," 7.21"
2019-05-14T04:03:24.689Z," 7.07"
2019-05-14T04:08:21.570Z," 6.84"
2019-05-14T04:13:19.855Z," 6.87"
2019-05-14T04:18:15.377Z," 6.82"
2019-05-14T04:23:11.310Z," 7.40"
2019-05-14T04:28:09.849Z," 8.13"
2019-05-14T04:33:05.839Z," 8.24"
2019-05-14T04:38:02.198Z," 8.67"
2019-05-14T04:42:59.224Z," 8.91"
2019-05-14T04:47:55.979Z," 8.88"
2019-05-14T04:52:50.780Z," 8.27"
2019-05-14T04:57:49.813Z," 7.85"
2019-05-14T05:02:44.373Z," 7.38"
2019-05-14T05:07:40.477Z," 7.77"
2019-05-14T05:12:38.748Z," 7.63"
2019-05-14T05:17:44.185Z," 7.98"
2019-05-14T05:22:33.791Z," 8.30"
2019-05-14T05:27:29.626Z," 8.27"
2019-05-14T05:32:25.623Z," 8.27"
2019-05-14T05:37:21.349Z," 8.27"
2019-05-14T05:42:18.773Z," 8.18"
2019-05-14T05:47:15.292Z," 8.30"
2019-05-14T05:52:11.299Z," 8.31"
2019-05-14T05:57:09.219Z," 8.44"
2019-05-14T06:02:04.319Z," 8.44"
2019-05-14T06:07:02.609Z," 8.44"
2019-05-14T06:11:59.263Z," 8.85"
2019-05-14T06:16:55.839Z," 8.74"
2019-05-14T06:21:51.055Z," 8.78"
2019-05-14T06:26:48.981Z," 8.74"
2019-05-14T06:31:45.248Z," 8.97"
2019-05-14T06:36:42.028Z," 9.10"
2019-05-14T06:41:42.674Z," 9.29"
2019-05-14T06:46:39.100Z," 9.23"
2019-05-14T06:51:34.931Z," 9.58"
2019-05-14T06:56:31.070Z," 9.74"
2019-05-14T07:01:29.212Z," 9.79"
2019-05-14T07:06:24.519Z," 9.97"
2019-05-14T07:11:20.396Z,10.12
2019-05-14T07:16:16.559Z," 9.98"
2019-05-14T07:21:12.413Z,10.15
2019-05-14T07:26:09.296Z,10.34
2019-05-14T07:31:04.989Z,10.46
2019-05-14T07:36:00.968Z,10.74
2019-05-14T07:40:58.543Z,10.90
2019-05-14T07:45:54.025Z,11.29
2019-05-14T07:50:52.569Z,12.31
2019-05-14T07:55:51.506Z,12.93
2019-05-14T08:00:49.701Z,14.22
2019-05-14T08:05:48.325Z,14.92
2019-05-14T08:10:45.364Z,14.58
2019-05-14T08:15:41.415Z,13.77
2019-05-14T08:20:38.073Z,13.99
2019-05-14T08:25:35.567Z,14.26
2019-05-14T08:30:32.775Z,15.33
2019-05-14T08:35:33.952Z,14.99
2019-05-14T08:40:28.742Z,13.70
2019-05-14T08:45:23.826Z,13.87
2019-05-14T08:50:22.342Z,15.18
2019-05-14T08:55:18.624Z,15.83
2019-05-14T09:00:14.781Z,14.97
2019-05-14T09:05:10.954Z,14.94
2019-05-14T09:10:05.377Z,14.23
2019-05-14T09:15:00.150Z,13.75
2019-05-14T09:20:03.151Z,13.31
2019-05-14T09:24:55.605Z,13.57
2019-05-14T09:29:51.365Z,13.68
2019-05-14T09:34:50.426Z,14.04
2019-05-14T09:39:44.688Z,13.86
2019-05-14T09:44:41.536Z,13.67
2019-05-14T09:49:35.659Z,13.28
2019-05-14T09:54:30.985Z,13.35
2019-05-14T09:59:29.287Z,14.45
2019-05-14T10:04:26.430Z,14.72
2019-05-14T10:09:20.597Z,13.85
2019-05-14T10:14:16.049Z,13.54
2019-05-14T10:19:12.987Z,13.85
2019-05-14T10:24:09.592Z,13.83
2019-05-14T10:29:05.411Z,13.95
2019-05-14T10:34:01.251Z,13.90
2019-05-14T10:38:58.802Z,14.03
2019-05-14T10:43:58.942Z,14.28
2019-05-14T10:48:54.969Z,14.53
2019-05-14T10:53:51.361Z,14.70
2019-05-14T10:58:50.650Z,15.36
2019-05-14T11:03:48.359Z,15.29
2019-05-14T11:08:43.538Z,14.89
2019-05-14T11:13:40.396Z,15.00
2019-05-14T11:18:39.922Z,15.00
2019-05-14T11:23:33.782Z,14.96
2019-05-14T11:28:33.683Z,15.95
2019-05-14T11:33:31.158Z,16.15
2019-05-14T11:38:36.599Z,15.94
2019-05-14T11:43:28.793Z,15.36
2019-05-14T11:48:20.844Z,15.17
2019-05-14T11:53:20.098Z,15.19
2019-05-14T11:58:21.021Z,15.57
2019-05-14T12:03:19.539Z,15.98
2019-05-14T12:08:18.374Z,16.10
2019-05-14T12:13:14.623Z,16.17
2019-05-14T12:18:10.584Z,16.84
2019-05-14T12:23:08.941Z,16.61
2019-05-14T12:28:04.329Z,16.78
2019-05-14T12:32:59.278Z,16.51
2019-05-14T12:37:58.537Z,16.87
2019-05-14T12:42:50.594Z,15.91
2019-05-14T12:47:49.844Z,15.76
2019-05-14T12:52:48.432Z,16.51
2019-05-14T12:57:48.398Z,17.51
2019-05-14T13:02:44.621Z,17.94
2019-05-14T13:07:42.225Z,16.90
2019-05-14T13:12:39.126Z,17.08
2019-05-14T13:17:34.271Z,15.62
2019-05-14T13:22:41.483Z,16.02
2019-05-14T13:27:28.965Z,16.97
2019-05-14T13:32:24.696Z,15.84
2019-05-14T13:37:19.801Z,16.15
2019-05-14T13:42:18.647Z,16.99
2019-05-14T13:47:14.853Z,18.13
2019-05-14T13:52:11.347Z,17.14
2019-05-14T13:57:09.064Z,15.83
2019-05-14T14:02:05.312Z,15.95
2019-05-14T14:07:01.536Z,16.33
2019-05-14T14:11:58.775Z,16.51
2019-05-14T14:16:54.762Z,16.33
2019-05-14T14:21:49.933Z,15.92
2019-05-14T14:26:48.941Z,16.23
2019-05-14T14:31:43.941Z,16.35
2019-05-14T14:36:39.337Z,15.83
2019-05-14T14:41:35.328Z,15.73
2019-05-14T14:46:31.123Z,15.90
2019-05-14T14:51:28.518Z,16.29
2019-05-14T14:56:24.163Z,16.02
2019-05-14T15:01:20.931Z,15.88
2019-05-14T15:06:17.196Z,15.75
2019-05-14T15:11:12.775Z,15.90
2019-05-14T15:16:13.395Z,15.92
2019-05-14T15:21:09.788Z,16.01
2019-05-14T15:26:05.322Z,16.13
2019-05-14T15:31:01.731Z,16.12
2019-05-14T15:35:58.253Z,15.97
2019-05-14T15:40:53.955Z,16.04
2019-05-14T15:45:50.983Z,16.23
2019-05-14T15:50:50.176Z,16.00
2019-05-14T15:55:46.120Z,16.00
2019-05-14T16:00:41.435Z,16.01
2019-05-14T16:05:39.371Z,16.04
2019-05-14T16:10:34.771Z,16.04
2019-05-14T16:15:30.798Z,16.24
2019-05-14T16:20:29.608Z,16.31
2019-05-14T16:25:24.747Z,15.86
2019-05-14T16:30:20.500Z,15.57
2019-05-14T16:35:16.276Z,15.43
2019-05-14T16:40:11.987Z,15.51
2019-05-14T16:45:08.831Z,15.68
2019-05-14T16:50:05.537Z,15.70
2019-05-14T16:55:15.504Z,15.75
2019-05-14T17:00:00.232Z,15.61
2019-05-14T17:04:55.899Z,15.46
2019-05-14T17:09:51.822Z,15.52
2019-05-14T17:14:48.174Z,15.57
2019-05-14T17:19:44.554Z,15.55
2019-05-14T17:24:40.529Z,15.55
2019-05-14T17:29:38.709Z,15.47
2019-05-14T17:34:33.791Z,15.52
2019-05-14T17:39:30.591Z,15.33
2019-05-14T17:44:26.146Z,15.15
2019-05-14T17:49:22.814Z,15.18
2019-05-14T17:54:19.041Z,15.11
2019-05-14T17:59:18.738Z,15.09
2019-05-14T18:04:13.783Z,15.18
2019-05-14T18:09:09.606Z,15.19
2019-05-14T18:14:11.577Z,15.09
2019-05-14T18:19:04.981Z,15.00
2019-05-14T18:24:01.682Z,15.00
2019-05-14T18:28:58.475Z,14.96
2019-05-14T18:33:53.963Z,14.89
2019-05-14T18:38:50.868Z,14.81
2019-05-14T18:43:46.487Z,14.68
2019-05-14T18:48:42.245Z,14.55
2019-05-14T18:53:38.657Z,14.43
2019-05-14T18:58:34.342Z,14.35
2019-05-14T19:03:29.939Z,14.18
2019-05-14T19:08:25.810Z,14.07
2019-05-14T19:13:21.469Z,13.90
2019-05-14T19:18:19.228Z,13.87
2019-05-14T19:23:14.782Z,13.81
2019-05-14T19:28:11.272Z,13.72
2019-05-14T19:33:08.565Z,13.68
2019-05-14T19:38:03.637Z,13.63
2019-05-14T19:42:59.693Z,13.53
2019-05-14T19:47:58.443Z,13.38
2019-05-14T19:52:53.471Z,13.35
2019-05-14T19:57:49.180Z,13.23
2019-05-14T20:02:48.619Z,13.11
2019-05-14T20:07:44.699Z,13.01
2019-05-14T20:12:40.060Z,12.95
2019-05-14T20:17:37.967Z,12.87
2019-05-14T20:22:33.752Z,12.78
2019-05-14T20:27:29.378Z,12.76
2019-05-14T20:32:26.142Z,12.60
2019-05-14T20:37:21.660Z,12.43
2019-05-14T20:42:19.061Z,12.40
2019-05-14T20:47:14.362Z,12.29
2019-05-14T20:52:10.117Z,12.12
2019-05-14T20:57:22.987Z,12.06
2019-05-14T21:02:05.264Z,11.94
2019-05-14T21:07:02.485Z,11.84
2019-05-14T21:11:57.953Z,11.80
2019-05-14T21:16:53.945Z,11.73
2019-05-14T21:21:49.808Z,11.62
2019-05-14T21:26:46.784Z,11.60
2019-05-14T21:31:42.528Z,11.65
2019-05-14T21:36:39.170Z,11.60
2019-05-14T21:41:35.167Z,11.48
2019-05-14T21:46:31.641Z,11.43
2019-05-14T21:51:28.400Z,11.36
2019-05-14T21:56:23.785Z,11.29
2019-05-14T22:01:19.404Z,11.14
2019-05-14T22:06:15.124Z,11.11
2019-05-14T22:11:10.819Z,11.04
2019-05-14T22:16:08.451Z,11.11
2019-05-14T22:21:03.932Z,10.97
2019-05-14T22:25:59.612Z,10.90
2019-05-14T22:30:55.950Z,10.92
2019-05-14T22:35:51.439Z,10.76
2019-05-14T22:40:48.253Z,10.78
2019-05-14T22:45:43.825Z,10.71
2019-05-14T22:50:41.470Z,10.59
2019-05-14T22:55:38.249Z,10.54
2019-05-14T23:00:34.060Z,10.60
2019-05-14T23:05:29.898Z,10.53
2019-05-14T23:10:25.799Z,10.44
2019-05-14T23:15:21.568Z,10.41
2019-05-14T23:20:19.493Z,10.31
2019-05-14T23:25:14.747Z,10.30
2019-05-14T23:30:10.469Z,10.15
2019-05-14T23:35:06.192Z,10.05
2019-05-14T23:40:01.893Z," 9.95"
2019-05-14T23:44:58.553Z," 9.92"
2019-05-14T23:49:53.973Z," 9.84"
2019-05-14T23:54:50.430Z," 9.74"
2019-05-14T23:59:48.165Z," 9.68"
